createdAt,value
2018-04-13T00:00:24.999Z,8.18
2018-04-13T00:01:24.989Z,8.23
2018-04-13T00:02:24.978Z,8.19
2018-04-13T00:03:24.968Z,8.26
2018-04-13T00:04:24.962Z,8.26
2018-04-13T00:05:24.952Z,8.23
2018-04-13T00:06:24.938Z,8.19
2018-04-13T00:07:24.928Z,8.15
2018-04-13T00:08:24.920Z,8.06
2018-04-13T00:09:25.017Z,8.08
2018-04-13T00:10:24.898Z,8.05
2018-04-13T00:11:24.888Z,8.00
2018-04-13T00:12:24.882Z,8.01
2018-04-13T00:13:24.869Z,7.95
2018-04-13T00:14:24.861Z,8.08
2018-04-13T00:15:24.848Z,8.01
2018-04-13T00:16:24.839Z,8.03
2018-04-13T00:17:24.827Z,8.00
2018-04-13T00:18:24.817Z,7.97
2018-04-13T00:19:24.807Z,8.00
2018-04-13T00:20:24.797Z,7.97
2018-04-13T00:21:24.788Z,7.93
2018-04-13T00:22:24.777Z,7.90
2018-04-13T00:23:24.767Z,7.88
2018-04-13T00:24:24.757Z,7.85
2018-04-13T00:25:24.748Z,7.85
2018-04-13T00:26:24.736Z,7.76
2018-04-13T00:27:24.726Z,7.80
2018-04-13T00:28:24.717Z,7.83
2018-04-13T00:29:24.705Z,7.73
2018-04-13T00:30:24.696Z,7.88
2018-04-13T00:31:24.695Z,7.87
2018-04-13T00:32:24.675Z,7.82
2018-04-13T00:33:24.665Z,7.73
2018-04-13T00:34:24.656Z,7.70
2018-04-13T00:35:24.645Z,7.70
2018-04-13T00:36:24.635Z,7.70
2018-04-13T00:37:24.624Z,7.60
2018-04-13T00:38:24.614Z,7.66
2018-04-13T00:39:24.603Z,7.69
2018-04-13T00:40:24.595Z,7.72
2018-04-13T00:41:24.583Z,7.76
2018-04-13T00:42:24.573Z,7.77
2018-04-13T00:43:24.567Z,7.82
2018-04-13T00:44:24.556Z,7.76
2018-04-13T00:45:24.541Z,7.77
2018-04-13T00:46:24.531Z,7.69
2018-04-13T00:47:24.522Z,7.66
2018-04-13T00:48:24.512Z,7.58
2018-04-13T00:49:24.500Z,7.72
2018-04-13T00:50:24.489Z,7.66
2018-04-13T00:51:24.480Z,7.69
2018-04-13T00:52:24.470Z,7.67
2018-04-13T00:53:24.459Z,7.67
2018-04-13T00:54:24.448Z,7.69
2018-04-13T00:55:24.438Z,7.53
2018-04-13T00:56:24.428Z,7.60
2018-04-13T00:57:24.416Z,7.54
2018-04-13T00:58:24.406Z,7.54
2018-04-13T00:59:24.396Z,7.53
2018-04-13T01:00:24.389Z,7.63
2018-04-13T01:01:24.375Z,7.69
2018-04-13T01:02:24.365Z,7.66
2018-04-13T01:03:24.355Z,7.61
2018-04-13T01:04:24.343Z,7.67
2018-04-13T01:05:24.332Z,7.66
2018-04-13T01:06:24.324Z,7.66
2018-04-13T01:07:24.329Z,7.66
2018-04-13T01:08:24.301Z,7.69
2018-04-13T01:09:24.294Z,7.72
2018-04-13T01:10:24.280Z,7.70
2018-04-13T01:11:24.267Z,7.79
2018-04-13T01:12:24.257Z,7.83
2018-04-13T01:13:24.246Z,7.87
2018-04-13T01:14:24.235Z,7.88
2018-04-13T01:15:24.224Z,7.87
2018-04-13T01:16:24.215Z,7.85
2018-04-13T01:17:24.203Z,7.88
2018-04-13T01:18:24.191Z,7.87
2018-04-13T01:19:24.181Z,7.87
2018-04-13T01:20:24.170Z,7.87
2018-04-13T01:21:24.158Z,7.90
2018-04-13T01:22:24.148Z,7.85
2018-04-13T01:23:24.138Z,7.87
2018-04-13T01:24:24.128Z,7.90
2018-04-13T01:25:24.116Z,7.83
2018-04-13T01:26:24.107Z,7.85
2018-04-13T01:27:24.096Z,7.88
2018-04-13T01:28:24.084Z,7.87
2018-04-13T01:29:24.076Z,7.87
2018-04-13T01:30:24.065Z,7.87
2018-04-13T01:31:24.053Z,7.94
2018-04-13T01:32:24.041Z,7.83
2018-04-13T01:33:24.031Z,7.79
2018-04-13T01:34:24.019Z,7.75
2018-04-13T01:35:24.008Z,7.72
2018-04-13T01:36:24.002Z,7.63
2018-04-13T01:37:23.987Z,7.70
2018-04-13T01:38:23.977Z,7.54
2018-04-13T01:39:23.967Z,7.54
2018-04-13T01:40:23.959Z,7.58
2018-04-13T01:41:23.947Z,7.58
2018-04-13T01:42:23.934Z,7.51
2018-04-13T01:43:23.924Z,7.45
2018-04-13T01:44:23.912Z,7.48
2018-04-13T01:45:23.901Z,7.56
2018-04-13T01:46:23.891Z,7.54
2018-04-13T01:47:23.880Z,7.57
2018-04-13T01:48:23.869Z,7.56
2018-04-13T01:49:23.858Z,7.54
2018-04-13T01:50:23.847Z,7.53
2018-04-13T01:51:23.838Z,7.45
2018-04-13T01:52:23.826Z,7.38
2018-04-13T01:53:23.853Z,7.35
2018-04-13T01:54:23.805Z,7.33
2018-04-13T01:55:23.794Z,7.36
2018-04-13T01:56:23.784Z,7.38
2018-04-13T01:57:23.772Z,7.32
2018-04-13T01:58:23.762Z,7.31
2018-04-13T01:59:23.751Z,7.25
2018-04-13T02:00:23.743Z,7.31
2018-04-13T02:01:23.730Z,7.23
2018-04-13T02:02:23.719Z,7.33
2018-04-13T02:03:23.709Z,7.21
2018-04-13T02:04:23.699Z,7.24
2018-04-13T02:05:23.689Z,7.23
2018-04-13T02:06:23.680Z,7.18
2018-04-13T02:07:23.667Z,7.21
2018-04-13T02:08:23.657Z,7.13
2018-04-13T02:09:23.645Z,7.13
2018-04-13T02:10:23.636Z,7.15
2018-04-13T02:11:23.625Z,7.13
2018-04-13T02:12:23.616Z,6.96
2018-04-13T02:13:23.604Z,7.03
2018-04-13T02:14:23.592Z,6.96
2018-04-13T02:15:23.581Z,7.03
2018-04-13T02:16:23.572Z,7.02
2018-04-13T02:17:23.563Z,7.03
2018-04-13T02:18:23.551Z,6.99
2018-04-13T02:19:23.540Z,6.95
2018-04-13T02:20:23.529Z,6.84
2018-04-13T02:21:23.518Z,6.89
2018-04-13T02:22:23.506Z,6.79
2018-04-13T02:23:23.497Z,6.78
2018-04-13T02:24:23.487Z,6.74
2018-04-13T02:25:23.475Z,6.67
2018-04-13T02:26:23.462Z,6.60
2018-04-13T02:27:23.452Z,6.52
2018-04-13T02:28:23.443Z,6.46
2018-04-13T02:29:23.429Z,6.41
2018-04-13T02:30:23.419Z,6.48
2018-04-13T02:31:23.409Z,6.42
2018-04-13T02:32:23.403Z,6.41
2018-04-13T02:33:23.391Z,6.44
2018-04-13T02:34:23.439Z,6.38
2018-04-13T02:35:23.365Z,6.45
2018-04-13T02:36:23.354Z,6.44
2018-04-13T02:37:23.343Z,6.35
2018-04-13T02:38:23.333Z,6.31
2018-04-13T02:39:23.321Z,6.24
2018-04-13T02:40:23.311Z,6.24
2018-04-13T02:41:23.299Z,6.28
2018-04-13T02:42:23.289Z,6.39
2018-04-13T02:43:23.278Z,6.41
2018-04-13T02:44:23.267Z,6.57
2018-04-13T02:45:23.256Z,6.63
2018-04-13T02:46:23.245Z,6.87
2018-04-13T02:47:23.238Z,6.84
2018-04-13T02:48:23.223Z,6.78
2018-04-13T02:49:23.211Z,6.69
2018-04-13T02:50:23.202Z,6.77
2018-04-13T02:51:23.190Z,6.72
2018-04-13T02:52:23.180Z,6.63
2018-04-13T02:53:23.168Z,6.70
2018-04-13T02:54:23.158Z,6.70
2018-04-13T02:55:23.147Z,6.66
2018-04-13T02:56:23.138Z,6.66
2018-04-13T02:57:23.123Z,6.72
2018-04-13T02:58:23.112Z,6.69
2018-04-13T02:59:23.117Z,6.63
2018-04-13T03:00:23.091Z,6.69
2018-04-13T03:01:23.079Z,6.70
2018-04-13T03:02:23.069Z,6.69
2018-04-13T03:03:23.058Z,6.59
2018-04-13T03:04:23.046Z,6.62
2018-04-13T03:05:23.043Z,6.52
2018-04-13T03:06:23.024Z,6.46
2018-04-13T03:07:23.014Z,6.44
2018-04-13T03:08:23.002Z,6.46
2018-04-13T03:09:22.995Z,6.42
2018-04-13T03:10:22.982Z,6.39
2018-04-13T03:11:22.973Z,6.35
2018-04-13T03:12:22.959Z,6.22
2018-04-13T03:13:22.947Z,6.28
2018-04-13T03:14:22.936Z,6.39
2018-04-13T03:15:22.926Z,6.35
2018-04-13T03:16:22.915Z,6.30
2018-04-13T03:17:22.904Z,6.16
2018-04-13T03:18:22.896Z,6.26
2018-04-13T03:19:22.884Z,6.14
2018-04-13T03:20:22.871Z,6.08
2018-04-13T03:21:22.859Z,6.11
2018-04-13T03:22:22.852Z,6.14
2018-04-13T03:23:22.841Z,6.16
2018-04-13T03:24:22.827Z,6.19
2018-04-13T03:25:22.815Z,6.24
2018-04-13T03:26:22.804Z,6.20
2018-04-13T03:27:22.793Z,6.11
2018-04-13T03:28:22.782Z,6.08
2018-04-13T03:29:22.773Z,6.14
2018-04-13T03:30:22.769Z,6.12
2018-04-13T03:31:22.749Z,6.16
2018-04-13T03:32:22.739Z,6.11
2018-04-13T03:33:22.726Z,6.16
2018-04-13T03:34:22.716Z,6.05
2018-04-13T03:35:22.706Z,5.99
2018-04-13T03:36:22.694Z,6.02
2018-04-13T03:37:22.694Z,5.99
2018-04-13T03:38:22.670Z,5.94
2018-04-13T03:39:22.658Z,6.02
2018-04-13T03:40:22.647Z,6.01
2018-04-13T03:41:22.640Z,5.93
2018-04-13T03:42:22.627Z,5.93
2018-04-13T03:43:22.618Z,5.83
2018-04-13T03:44:22.603Z,5.83
2018-04-13T03:45:22.590Z,5.79
2018-04-13T03:46:22.580Z,5.73
2018-04-13T03:47:22.568Z,5.72
2018-04-13T03:48:22.557Z,5.71
2018-04-13T03:49:22.546Z,5.62
2018-04-13T03:50:22.534Z,5.71
2018-04-13T03:51:22.522Z,5.83
2018-04-13T03:52:22.511Z,5.89
2018-04-13T03:53:22.499Z,5.91
2018-04-13T03:54:22.536Z,5.99
2018-04-13T03:55:22.477Z,5.98
2018-04-13T03:56:22.465Z,6.02
2018-04-13T03:57:22.454Z,6.11
2018-04-13T03:58:22.442Z,6.22
2018-04-13T03:59:22.432Z,6.28
2018-04-13T04:00:22.419Z,6.36
2018-04-13T04:01:22.406Z,6.44
2018-04-13T04:02:22.396Z,6.42
2018-04-13T04:03:22.385Z,6.44
2018-04-13T04:04:22.376Z,6.31
2018-04-13T04:05:22.360Z,6.31
2018-04-13T04:06:22.350Z,6.27
2018-04-13T04:07:22.340Z,6.22
2018-04-13T04:08:22.327Z,6.14
2018-04-13T04:09:22.316Z,6.14
2018-04-13T04:10:22.307Z,6.11
2018-04-13T04:11:22.292Z,5.98
2018-04-13T04:12:22.281Z,5.99
2018-04-13T04:13:22.270Z,6.01
2018-04-13T04:14:22.258Z,5.89
2018-04-13T04:15:22.248Z,5.86
2018-04-13T04:16:22.237Z,5.79
2018-04-13T04:17:22.225Z,5.76
2018-04-13T04:18:22.214Z,5.76
2018-04-13T04:19:22.202Z,5.72
2018-04-13T04:20:22.190Z,5.75
2018-04-13T04:21:22.178Z,5.75
2018-04-13T04:22:22.167Z,5.83
2018-04-13T04:23:22.155Z,5.82
2018-04-13T04:24:22.144Z,5.82
2018-04-13T04:25:22.132Z,5.87
2018-04-13T04:26:22.122Z,5.87
2018-04-13T04:27:22.110Z,5.87
2018-04-13T04:28:22.098Z,5.87
2018-04-13T04:29:22.086Z,5.89
2018-04-13T04:30:22.076Z,6.02
2018-04-13T04:31:22.067Z,5.94
2018-04-13T04:32:22.052Z,5.91
2018-04-13T04:33:22.039Z,5.93
2018-04-13T04:34:22.029Z,5.94
2018-04-13T04:35:22.017Z,5.98
2018-04-13T04:36:22.007Z,5.94
2018-04-13T04:37:21.993Z,5.91
2018-04-13T04:38:21.982Z,5.97
2018-04-13T04:39:21.971Z,6.02
2018-04-13T04:40:21.960Z,6.07
2018-04-13T04:41:21.948Z,6.14
2018-04-13T04:42:21.936Z,6.08
2018-04-13T04:43:21.926Z,6.02
2018-04-13T04:44:21.915Z,5.93
2018-04-13T04:45:21.902Z,5.93
2018-04-13T04:46:21.892Z,5.97
2018-04-13T04:47:21.879Z,5.97
2018-04-13T04:48:21.868Z,5.98
2018-04-13T04:49:21.855Z,5.97
2018-04-13T04:50:21.852Z,5.99
2018-04-13T04:51:21.836Z,6.02
2018-04-13T04:52:21.823Z,6.16
2018-04-13T04:53:21.813Z,6.12
2018-04-13T04:54:21.800Z,6.08
2018-04-13T04:55:21.791Z,6.16
2018-04-13T04:56:21.780Z,6.16
2018-04-13T04:57:21.766Z,6.17
2018-04-13T04:58:21.755Z,6.17
2018-04-13T04:59:21.746Z,6.14
2018-04-13T05:00:21.737Z,6.11
2018-04-13T05:01:21.721Z,6.20
2018-04-13T05:02:21.710Z,6.17
2018-04-13T05:03:21.700Z,6.19
2018-04-13T05:04:21.688Z,6.17
2018-04-13T05:05:21.679Z,6.16
2018-04-13T05:06:21.664Z,6.16
2018-04-13T05:07:21.657Z,6.22
2018-04-13T05:08:21.643Z,6.08
2018-04-13T05:09:21.631Z,6.12
2018-04-13T05:10:21.619Z,6.16
2018-04-13T05:11:21.608Z,6.12
2018-04-13T05:12:21.599Z,6.12
2018-04-13T05:13:21.584Z,6.22
2018-04-13T05:14:21.573Z,6.20
2018-04-13T05:15:21.562Z,6.22
2018-04-13T05:16:21.551Z,6.24
2018-04-13T05:17:21.539Z,6.22
2018-04-13T05:18:21.528Z,6.22
2018-04-13T05:19:21.517Z,6.27
2018-04-13T05:20:21.505Z,6.20
2018-04-13T05:21:21.493Z,6.20
2018-04-13T05:22:21.482Z,6.28
2018-04-13T05:23:21.474Z,6.26
2018-04-13T05:24:21.460Z,6.28
2018-04-13T05:25:21.448Z,6.28
2018-04-13T05:26:21.438Z,6.31
2018-04-13T05:27:21.426Z,6.39
2018-04-13T05:28:21.418Z,6.44
2018-04-13T05:29:21.412Z,6.46
2018-04-13T05:30:21.393Z,6.45
2018-04-13T05:31:21.382Z,6.52
2018-04-13T05:32:21.370Z,6.59
2018-04-13T05:33:21.359Z,6.72
2018-04-13T05:34:21.349Z,6.72
2018-04-13T05:35:21.398Z,6.70
2018-04-13T05:36:21.326Z,6.74
2018-04-13T05:37:21.315Z,6.79
2018-04-13T05:38:21.302Z,6.89
2018-04-13T05:39:21.292Z,7.02
2018-04-13T05:40:21.281Z,7.03
2018-04-13T05:41:21.270Z,6.96
2018-04-13T05:42:21.259Z,7.00
2018-04-13T05:43:21.248Z,7.03
2018-04-13T05:44:21.238Z,6.95
2018-04-13T05:45:21.226Z,6.88
2018-04-13T05:46:21.218Z,6.87
2018-04-13T05:47:21.208Z,6.95
2018-04-13T05:48:21.196Z,7.00
2018-04-13T05:49:21.181Z,7.14
2018-04-13T05:50:21.171Z,7.18
2018-04-13T05:51:21.160Z,7.24
2018-04-13T05:52:21.151Z,7.18
2018-04-13T05:53:21.139Z,7.29
2018-04-13T05:54:21.129Z,7.38
2018-04-13T05:55:21.117Z,7.35
2018-04-13T05:56:21.106Z,7.43
2018-04-13T05:57:21.098Z,7.45
2018-04-13T05:58:21.088Z,7.48
2018-04-13T05:59:21.080Z,7.47
2018-04-13T06:00:21.065Z,7.51
2018-04-13T06:01:21.052Z,7.51
2018-04-13T06:02:21.041Z,7.56
2018-04-13T06:03:21.031Z,7.56
2018-04-13T06:04:21.020Z,7.50
2018-04-13T06:05:21.010Z,7.54
2018-04-13T06:06:21.000Z,7.66
2018-04-13T06:07:20.987Z,7.75
2018-04-13T06:08:20.977Z,7.61
2018-04-13T06:09:20.965Z,7.70
2018-04-13T06:10:20.960Z,7.76
2018-04-13T06:11:20.946Z,7.83
2018-04-13T06:12:20.936Z,7.80
2018-04-13T06:13:20.923Z,7.93
2018-04-13T06:14:20.913Z,8.01
2018-04-13T06:15:20.903Z,8.06
2018-04-13T06:16:20.893Z,8.12
2018-04-13T06:17:20.882Z,8.15
2018-04-13T06:18:20.873Z,8.13
2018-04-13T06:19:20.862Z,8.23
2018-04-13T06:20:20.852Z,8.18
2018-04-13T06:21:20.841Z,8.27
2018-04-13T06:22:20.832Z,8.20
2018-04-13T06:23:20.821Z,8.24
2018-04-13T06:24:20.859Z,8.24
2018-04-13T06:25:20.804Z,8.30
2018-04-13T06:26:20.795Z,8.36
2018-04-13T06:27:20.782Z,8.45
2018-04-13T06:28:20.772Z,8.48
2018-04-13T06:29:20.761Z,8.51
2018-04-13T06:30:20.757Z,8.61
2018-04-13T06:31:20.743Z,8.71
2018-04-13T06:32:20.734Z,8.87
2018-04-13T06:33:20.723Z,8.76
2018-04-13T06:34:20.715Z,8.88
2018-04-13T06:35:20.705Z,8.88
2018-04-13T06:36:20.696Z,8.99
2018-04-13T06:37:20.721Z,8.97
2018-04-13T06:38:20.679Z,8.97
2018-04-13T06:39:20.669Z,9.00
2018-04-13T06:40:20.660Z,9.10
2018-04-13T06:41:20.658Z,9.22
2018-04-13T06:42:20.642Z,9.29
2018-04-13T06:43:20.636Z,9.31
2018-04-13T06:44:20.626Z,9.39
2018-04-13T06:45:20.616Z,9.39
2018-04-13T06:46:20.607Z,9.46
2018-04-13T06:47:20.611Z,9.66
2018-04-13T06:48:20.591Z,9.65
2018-04-13T06:49:20.581Z,9.64
2018-04-13T06:50:20.575Z,9.73
2018-04-13T06:51:20.566Z,9.79
2018-04-13T06:52:20.558Z,9.91
2018-04-13T06:53:20.550Z,9.86
2018-04-13T06:54:20.542Z,10.01
2018-04-13T06:55:20.535Z,10.05
2018-04-13T06:56:20.527Z,9.99
2018-04-13T06:57:20.516Z,10.16
2018-04-13T06:58:20.510Z,10.10
2018-04-13T06:59:20.501Z,10.19
2018-04-13T07:00:20.494Z,10.37
2018-04-13T07:01:20.491Z,10.46
2018-04-13T07:02:20.478Z,10.48
2018-04-13T07:03:20.471Z,10.57
2018-04-13T07:04:20.463Z,10.57
2018-04-13T07:05:20.455Z,10.61
2018-04-13T07:06:20.448Z,10.69
2018-04-13T07:07:20.441Z,10.71
2018-04-13T07:08:20.439Z,10.82
2018-04-13T07:09:20.431Z,10.87
2018-04-13T07:10:20.419Z,10.89
2018-04-13T07:11:20.412Z,11.02
2018-04-13T07:12:20.405Z,11.15
2018-04-13T07:13:20.398Z,11.15
2018-04-13T07:14:20.410Z,11.29
2018-04-13T07:15:20.383Z,11.30
2018-04-13T07:16:20.377Z,11.44
2018-04-13T07:17:20.369Z,11.47
2018-04-13T07:18:20.364Z,11.50
2018-04-13T07:19:20.371Z,11.54
2018-04-13T07:20:20.351Z,11.52
2018-04-13T07:21:20.344Z,11.57
2018-04-13T07:22:20.339Z,11.62
2018-04-13T07:23:20.331Z,11.68
2018-04-13T07:24:20.327Z,11.66
2018-04-13T07:25:20.318Z,11.77
2018-04-13T07:26:20.313Z,11.83
2018-04-13T07:27:20.306Z,11.84
2018-04-13T07:28:20.301Z,11.81
2018-04-13T07:29:20.295Z,11.77
2018-04-13T07:30:20.291Z,11.84
2018-04-13T07:31:20.285Z,11.97
2018-04-13T07:32:20.278Z,12.00
2018-04-13T07:33:20.271Z,12.04
2018-04-13T07:34:20.265Z,12.03
2018-04-13T07:35:20.260Z,12.04
2018-04-13T07:36:20.254Z,12.18
2018-04-13T07:37:20.247Z,12.24
2018-04-13T07:38:20.242Z,12.13
2018-04-13T07:39:20.244Z,12.25
2018-04-13T07:40:20.232Z,12.21
2018-04-13T07:41:20.226Z,12.28
2018-04-13T07:42:20.227Z,12.28
2018-04-13T07:43:20.214Z,12.47
2018-04-13T07:44:20.218Z,12.42
2018-04-13T07:45:20.205Z,12.61
2018-04-13T07:46:20.197Z,12.61
2018-04-13T07:47:20.193Z,12.57
2018-04-13T07:48:20.189Z,12.62
2018-04-13T07:49:20.192Z,12.65
2018-04-13T07:50:20.328Z,12.57
2018-04-13T07:51:20.174Z,12.72
2018-04-13T07:52:20.263Z,12.73
2018-04-13T07:53:20.161Z,12.83
2018-04-13T07:54:20.158Z,12.85
2018-04-13T07:55:20.151Z,12.87
2018-04-13T07:56:20.148Z,12.93
2018-04-13T07:57:20.142Z,12.97
2018-04-13T07:58:20.137Z,13.09
2018-04-13T07:59:20.146Z,13.18
2018-04-13T08:00:20.326Z,13.33
2018-04-13T08:01:20.123Z,13.42
2018-04-13T08:02:20.122Z,13.46
2018-04-13T08:03:20.116Z,13.42
2018-04-13T08:04:20.113Z,13.52
2018-04-13T08:05:20.109Z,13.54
2018-04-13T08:06:20.103Z,13.57
2018-04-13T08:07:20.102Z,13.68
2018-04-13T08:08:20.097Z,13.68
2018-04-13T08:09:20.095Z,13.63
2018-04-13T08:10:20.089Z,13.74
2018-04-13T08:11:20.094Z,13.74
2018-04-13T08:12:20.267Z,13.79
2018-04-13T08:13:20.078Z,13.81
2018-04-13T08:14:20.075Z,13.79
2018-04-13T08:15:20.071Z,13.75
2018-04-13T08:16:20.069Z,13.75
2018-04-13T08:17:20.065Z,13.70
2018-04-13T08:18:20.060Z,13.67
2018-04-13T08:19:20.056Z,13.65
2018-04-13T08:20:20.054Z,13.75
2018-04-13T08:21:20.049Z,13.78
2018-04-13T08:22:20.046Z,13.71
2018-04-13T08:23:20.096Z,13.78
2018-04-13T08:24:20.042Z,13.83
2018-04-13T08:25:20.032Z,13.86
2018-04-13T08:26:20.029Z,13.78
2018-04-13T08:27:20.026Z,13.89
2018-04-13T08:28:20.021Z,13.92
2018-04-13T08:29:20.022Z,13.92
2018-04-13T08:30:20.014Z,13.90
2018-04-13T08:31:20.010Z,13.93
2018-04-13T08:32:20.005Z,13.97
2018-04-13T08:33:20.000Z,14.03
2018-04-13T08:34:19.996Z,14.03
2018-04-13T08:35:19.992Z,14.11
2018-04-13T08:36:19.988Z,14.03
2018-04-13T08:37:20.000Z,14.23
2018-04-13T08:38:20.005Z,14.32
2018-04-13T08:39:19.995Z,14.26
2018-04-13T08:40:19.994Z,14.30
2018-04-13T08:41:20.001Z,14.29
2018-04-13T08:42:19.962Z,14.32
2018-04-13T08:43:20.017Z,14.32
2018-04-13T08:44:19.970Z,14.29
2018-04-13T08:45:19.950Z,14.33
2018-04-13T08:46:19.947Z,14.32
2018-04-13T08:47:20.008Z,14.30
2018-04-13T08:48:19.938Z,14.28
2018-04-13T08:49:19.934Z,14.30
2018-04-13T08:50:19.931Z,14.32
2018-04-13T08:51:19.953Z,14.44
2018-04-13T08:52:19.922Z,14.54
2018-04-13T08:53:19.916Z,14.55
2018-04-13T08:54:19.913Z,14.59
2018-04-13T08:55:19.909Z,14.58
2018-04-13T08:56:19.906Z,14.58
2018-04-13T08:57:19.905Z,14.62
2018-04-13T08:58:19.898Z,14.63
2018-04-13T08:59:19.894Z,14.60
2018-04-13T09:00:19.916Z,14.62
2018-04-13T09:01:19.887Z,14.51
2018-04-13T09:02:19.884Z,14.45
2018-04-13T09:03:19.881Z,14.43
2018-04-13T09:04:19.874Z,14.48
2018-04-13T09:05:19.868Z,14.44
2018-04-13T09:06:19.906Z,14.45
2018-04-13T09:07:19.861Z,14.35
2018-04-13T09:08:19.856Z,14.44
2018-04-13T09:09:19.852Z,14.29
2018-04-13T09:10:19.848Z,14.40
2018-04-13T09:11:19.842Z,14.35
2018-04-13T09:12:19.838Z,14.35
2018-04-13T09:13:19.833Z,14.36
2018-04-13T09:14:19.828Z,14.33
2018-04-13T09:15:19.824Z,14.22
2018-04-13T09:16:19.818Z,14.37
2018-04-13T09:17:19.814Z,14.40
2018-04-13T09:18:19.808Z,14.45
2018-04-13T09:19:19.804Z,14.33
2018-04-13T09:20:19.798Z,14.37
2018-04-13T09:21:19.793Z,14.44
2018-04-13T09:22:19.788Z,14.33
2018-04-13T09:23:19.788Z,14.37
2018-04-13T09:24:19.780Z,14.32
2018-04-13T09:25:19.776Z,14.35
2018-04-13T09:26:19.768Z,14.23
2018-04-13T09:27:19.762Z,14.43
2018-04-13T09:28:19.757Z,14.40
2018-04-13T09:29:19.752Z,14.44
2018-04-13T09:30:19.746Z,14.32
2018-04-13T09:31:19.741Z,14.33
2018-04-13T09:32:19.736Z,14.29
2018-04-13T09:33:19.730Z,14.29
2018-04-13T09:34:19.729Z,14.32
2018-04-13T09:35:19.722Z,14.41
2018-04-13T09:36:19.717Z,14.44
2018-04-13T09:37:19.710Z,14.37
2018-04-13T09:38:19.704Z,14.36
2018-04-13T09:39:19.699Z,14.33
2018-04-13T09:40:19.696Z,14.29
2018-04-13T09:41:19.689Z,14.33
2018-04-13T09:42:19.683Z,14.44
2018-04-13T09:43:19.679Z,14.35
2018-04-13T09:44:19.715Z,14.36
2018-04-13T09:45:19.668Z,14.40
2018-04-13T09:46:19.663Z,14.36
2018-04-13T09:47:19.657Z,14.33
2018-04-13T09:48:19.653Z,14.35
2018-04-13T09:49:19.650Z,14.33
2018-04-13T09:50:19.640Z,14.36
2018-04-13T09:51:19.636Z,14.36
2018-04-13T09:52:19.630Z,14.36
2018-04-13T09:53:19.626Z,14.37
2018-04-13T09:54:19.619Z,14.33
2018-04-13T09:55:19.615Z,14.41
2018-04-13T09:56:19.613Z,14.40
2018-04-13T09:57:19.603Z,14.23
2018-04-13T09:58:19.598Z,14.26
2018-04-13T09:59:19.593Z,14.35
2018-04-13T10:00:19.588Z,14.40
2018-04-13T10:01:19.582Z,14.29
2018-04-13T10:02:19.578Z,14.40
2018-04-13T10:03:19.571Z,14.23
2018-04-13T10:04:19.566Z,14.32
2018-04-13T10:05:19.560Z,14.33
2018-04-13T10:06:19.558Z,14.41
2018-04-13T10:07:19.551Z,14.41
2018-04-13T10:08:19.546Z,14.48
2018-04-13T10:09:19.539Z,14.62
2018-04-13T10:10:19.534Z,14.60
2018-04-13T10:11:19.528Z,14.63
2018-04-13T10:12:19.524Z,14.68
2018-04-13T10:13:19.518Z,14.68
2018-04-13T10:14:19.514Z,14.65
2018-04-13T10:15:19.509Z,14.68
2018-04-13T10:16:19.503Z,14.73
2018-04-13T10:17:19.498Z,14.60
2018-04-13T10:18:19.493Z,14.68
2018-04-13T10:19:19.490Z,14.66
2018-04-13T10:20:19.486Z,14.63
2018-04-13T10:21:19.477Z,14.62
2018-04-13T10:22:19.475Z,14.68
2018-04-13T10:23:19.468Z,14.77
2018-04-13T10:24:19.465Z,14.63
2018-04-13T10:25:19.459Z,14.63
2018-04-13T10:26:19.454Z,14.65
2018-04-13T10:27:19.448Z,14.65
2018-04-13T10:28:19.445Z,14.69
2018-04-13T10:29:19.437Z,14.77
2018-04-13T10:30:19.433Z,14.72
2018-04-13T10:31:19.429Z,14.82
2018-04-13T10:32:19.423Z,14.88
2018-04-13T10:33:19.418Z,14.81
2018-04-13T10:34:19.418Z,14.84
2018-04-13T10:35:19.412Z,14.84
2018-04-13T10:36:19.405Z,14.94
2018-04-13T10:37:19.399Z,14.96
2018-04-13T10:38:19.395Z,15.00
2018-04-13T10:39:19.390Z,15.06
2018-04-13T10:40:19.386Z,15.04
2018-04-13T10:41:19.381Z,15.03
2018-04-13T10:42:19.376Z,14.94
2018-04-13T10:43:19.372Z,14.97
2018-04-13T10:44:19.372Z,14.96
2018-04-13T10:45:19.362Z,14.88
2018-04-13T10:46:19.361Z,14.96
2018-04-13T10:47:19.355Z,14.96
2018-04-13T10:48:19.357Z,14.96
2018-04-13T10:49:19.396Z,14.97
2018-04-13T10:50:19.340Z,14.96
2018-04-13T10:51:19.336Z,15.00
2018-04-13T10:52:19.330Z,15.00
2018-04-13T10:53:19.326Z,15.09
2018-04-13T10:54:19.321Z,15.17
2018-04-13T10:55:19.318Z,15.21
2018-04-13T10:56:19.312Z,15.24
2018-04-13T10:57:19.306Z,15.15
2018-04-13T10:58:19.302Z,15.21
2018-04-13T10:59:19.297Z,15.17
2018-04-13T11:00:19.295Z,15.27
2018-04-13T11:01:19.289Z,15.21
2018-04-13T11:02:19.285Z,15.03
2018-04-13T11:03:19.282Z,15.18
2018-04-13T11:04:19.277Z,15.18
2018-04-13T11:05:19.271Z,15.25
2018-04-13T11:06:19.268Z,15.27
2018-04-13T11:07:19.265Z,15.27
2018-04-13T11:08:19.259Z,15.27
2018-04-13T11:09:19.254Z,15.27
2018-04-13T11:10:19.302Z,15.22
2018-04-13T11:11:19.246Z,15.22
2018-04-13T11:12:19.242Z,15.18
2018-04-13T11:13:19.239Z,15.17
2018-04-13T11:14:19.232Z,15.17
2018-04-13T11:15:19.229Z,15.28
2018-04-13T11:16:19.228Z,15.22
2018-04-13T11:17:19.220Z,15.06
2018-04-13T11:18:19.215Z,15.07
2018-04-13T11:19:19.209Z,15.15
2018-04-13T11:20:19.205Z,15.10
2018-04-13T11:21:19.201Z,15.04
2018-04-13T11:22:19.194Z,15.04
2018-04-13T11:23:19.194Z,15.17
2018-04-13T11:24:19.186Z,15.15
2018-04-13T11:25:19.182Z,15.18
2018-04-13T11:26:19.177Z,15.15
2018-04-13T11:27:19.171Z,15.09
2018-04-13T11:28:19.169Z,15.06
2018-04-13T11:29:19.161Z,15.09
2018-04-13T11:30:19.158Z,15.19
2018-04-13T11:31:19.182Z,15.18
2018-04-13T11:32:19.149Z,15.21
2018-04-13T11:33:19.147Z,15.27
2018-04-13T11:34:19.139Z,15.27
2018-04-13T11:35:19.136Z,15.19
2018-04-13T11:36:19.128Z,15.17
2018-04-13T11:37:19.125Z,15.25
2018-04-13T11:38:19.118Z,15.18
2018-04-13T11:39:19.115Z,15.28
2018-04-13T11:40:19.109Z,15.28
2018-04-13T11:41:19.105Z,15.18
2018-04-13T11:42:19.100Z,15.19
2018-04-13T11:43:19.096Z,15.21
2018-04-13T11:44:19.092Z,15.18
2018-04-13T11:45:19.087Z,15.17
2018-04-13T11:46:19.081Z,15.21
2018-04-13T11:47:19.078Z,15.14
2018-04-13T11:48:19.081Z,15.22
2018-04-13T11:49:19.076Z,15.24
2018-04-13T11:50:19.063Z,15.21
2018-04-13T11:51:19.059Z,15.27
2018-04-13T11:52:19.054Z,15.24
2018-04-13T11:53:19.048Z,15.22
2018-04-13T11:54:19.044Z,15.21
2018-04-13T11:55:19.040Z,15.24
2018-04-13T11:56:19.036Z,15.29
2018-04-13T11:57:19.030Z,15.27
2018-04-13T11:58:19.026Z,15.28
2018-04-13T11:59:19.020Z,15.21
2018-04-13T12:00:19.019Z,15.25
2018-04-13T12:01:19.012Z,15.24
2018-04-13T12:02:19.007Z,15.27
2018-04-13T12:03:19.002Z,15.27
2018-04-13T12:04:18.999Z,15.21
2018-04-13T12:05:18.992Z,15.21
2018-04-13T12:06:18.987Z,15.22
2018-04-13T12:07:18.982Z,15.18
2018-04-13T12:08:18.982Z,15.02
2018-04-13T12:09:18.972Z,15.11
2018-04-13T12:10:18.968Z,15.18
2018-04-13T12:11:18.964Z,15.15
2018-04-13T12:12:18.962Z,15.25
2018-04-13T12:13:18.953Z,15.18
2018-04-13T12:14:18.948Z,15.24
2018-04-13T12:15:18.945Z,15.27
2018-04-13T12:16:18.940Z,15.24
2018-04-13T12:17:18.934Z,15.19
2018-04-13T12:18:18.930Z,15.18
2018-04-13T12:19:18.925Z,15.07
2018-04-13T12:20:18.921Z,15.17
2018-04-13T12:21:18.915Z,15.15
2018-04-13T12:22:18.910Z,15.17
2018-04-13T12:23:18.906Z,15.24
2018-04-13T12:24:18.904Z,15.27
2018-04-13T12:25:18.895Z,15.25
2018-04-13T12:26:18.891Z,15.40
2018-04-13T12:27:18.886Z,15.37
2018-04-13T12:28:18.887Z,15.37
2018-04-13T12:29:18.882Z,15.24
2018-04-13T12:30:18.871Z,15.25
2018-04-13T12:31:18.874Z,15.21
2018-04-13T12:32:18.862Z,15.22
2018-04-13T12:33:18.858Z,15.18
2018-04-13T12:34:18.853Z,15.17
2018-04-13T12:35:18.850Z,15.15
2018-04-13T12:36:18.842Z,15.22
2018-04-13T12:37:18.836Z,15.18
2018-04-13T12:38:18.838Z,15.19
2018-04-13T12:39:18.826Z,15.17
2018-04-13T12:40:18.823Z,15.15
2018-04-13T12:41:18.816Z,15.19
2018-04-13T12:42:18.812Z,15.15
2018-04-13T12:43:18.808Z,15.25
2018-04-13T12:44:18.801Z,15.17
2018-04-13T12:45:18.797Z,15.27
2018-04-13T12:46:18.793Z,15.21
2018-04-13T12:47:18.786Z,15.24
2018-04-13T12:48:18.781Z,15.28
2018-04-13T12:49:18.776Z,15.18
2018-04-13T12:50:18.771Z,15.17
2018-04-13T12:51:18.766Z,15.18
2018-04-13T12:52:18.761Z,15.21
2018-04-13T12:53:18.756Z,15.17
2018-04-13T12:54:18.753Z,15.24
2018-04-13T12:55:18.747Z,15.27
2018-04-13T12:56:18.813Z,15.27
2018-04-13T12:57:18.736Z,15.25
2018-04-13T12:58:18.731Z,15.37
2018-04-13T12:59:18.727Z,15.40
2018-04-13T13:00:18.721Z,15.42
2018-04-13T13:01:18.715Z,15.43
2018-04-13T13:02:18.711Z,15.37
2018-04-13T13:03:18.706Z,15.35
2018-04-13T13:04:18.701Z,15.22
2018-04-13T13:05:18.697Z,15.21
2018-04-13T13:06:18.691Z,15.25